Schillplate — ZDJJ8 — position and weather

sailwx.info

Track history (hours):
 
Tides and Currents Weather Stations Pressure Air Temp Water Temp Dewpoint Dewpoint Depression Visibility Wind Speed Wind Dir Waves Ship Positions

Schillplate

Last reported at 2015-Mar-29 22:24 UTC. Time now 2015-Apr-01 17:52 UTC.
Position N 35°55' W 005°13'.

Length 86 m; draft 3.8 m.

Type: Cargo ship. MMSI: 236111603.

Date/timePositionNaut miles runAvg speedWind from/ knotsBaromVisibWave heightAir tempDewpointWater temp
2015-Mar-29 22:24N 35°55' W 005°13'5 6.2
2015-Mar-29 21:31N 35°55' W 005°20'0 0.0
2015-Mar-29 20:28N 35°55' W 005°20'0 0.0
2015-Mar-29 19:31N 35°55' W 005°20'0 0.0
2015-Mar-29 18:31N 35°55' W 005°20'0 0.0
2015-Mar-29 17:31N 35°55' W 005°20'0 0.0
2015-Mar-29 16:31N 35°55' W 005°20'0 0.0
2015-Mar-29 15:31N 35°55' W 005°20'0 0.0
2015-Mar-29 14:31N 35°55' W 005°20'0 0.1
2015-Mar-29 13:31N 35°55' W 005°20'0 0.1
2015-Mar-29 12:28N 35°55' W 005°20'0 0.0
2015-Mar-29 11:31N 35°55' W 005°20'0 0.0
2015-Mar-29 10:31N 35°55' W 005°20'0 0.0
2015-Mar-29 09:31N 35°55' W 005°20'0 0.0
2015-Mar-29 08:31N 35°55' W 005°20'0 0.0
2015-Mar-29 07:31N 35°55' W 005°20'0 0.0
2015-Mar-29 06:28N 35°55' W 005°20'0 0.0
2015-Mar-29 05:31N 35°55' W 005°20'0 0.0
2015-Mar-29 04:31N 35°55' W 005°20'0 0.1
2015-Mar-29 03:31N 35°55' W 005°20'0 0.0
2015-Mar-29 02:31N 35°55' W 005°20'0 0.0
2015-Mar-29 01:31N 35°55' W 005°20'1 1.1
2015-Mar-29 00:33N 35°54' W 005°19'0 0.0
2015-Mar-28 23:31N 35°54' W 005°19'0 0.0
2015-Mar-28 22:31N 35°54' W 005°19'0 0.0
2015-Mar-28 21:34N 35°54' W 005°19'1 1.2
2015-Mar-28 20:34N 35°55' W 005°18'2 1.8
2015-Mar-28 19:34N 35°57' W 005°18'0 0.2
2015-Mar-28 18:34N 35°57' W 005°18'3 3.1
2015-Mar-28 17:34N 35°60' W 005°20'1010.1
2015-Mar-28 16:34N 36°09' W 005°25'1 0.0
2015-Mar-27 20:31N 36°09' W 005°24'7 7.3
2015-Mar-27 19:33N 36°05' W 005°17'  
Track history (hours):
 
Tides and Currents Weather Stations Pressure Air Temp Water Temp Dewpoint Dewpoint Depression Visibility Wind Speed Wind Dir Waves Ship Positions

Schillplate

Last reported at 2015-Mar-29 22:24 UTC. Time now 2015-Apr-01 17:52 UTC.
Position N 35°55' W 005°13'.

Length 86 m; draft 3.8 m.

Type: Cargo ship. MMSI: 236111603.

Date/timePositionNaut miles runAvg speedWind from/ knotsBaromVisibWave heightAir tempDewpointWater temp
2015-Mar-29 22:24N 35°55' W 005°13'5 6.2
2015-Mar-29 21:31N 35°55' W 005°20'0 0.0
2015-Mar-29 20:28N 35°55' W 005°20'0 0.0
2015-Mar-29 19:31N 35°55' W 005°20'0 0.0
2015-Mar-29 18:31N 35°55' W 005°20'0 0.0
2015-Mar-29 17:31N 35°55' W 005°20'0 0.0
2015-Mar-29 16:31N 35°55' W 005°20'0 0.0
2015-Mar-29 15:31N 35°55' W 005°20'0 0.0
2015-Mar-29 14:31N 35°55' W 005°20'0 0.1
2015-Mar-29 13:31N 35°55' W 005°20'0 0.1
2015-Mar-29 12:28N 35°55' W 005°20'0 0.0
2015-Mar-29 11:31N 35°55' W 005°20'0 0.0
2015-Mar-29 10:31N 35°55' W 005°20'0 0.0
2015-Mar-29 09:31N 35°55' W 005°20'0 0.0
2015-Mar-29 08:31N 35°55' W 005°20'0 0.0
2015-Mar-29 07:31N 35°55' W 005°20'0 0.0
2015-Mar-29 06:28N 35°55' W 005°20'0 0.0
2015-Mar-29 05:31N 35°55' W 005°20'0 0.0
2015-Mar-29 04:31N 35°55' W 005°20'0 0.1
2015-Mar-29 03:31N 35°55' W 005°20'0 0.0
2015-Mar-29 02:31N 35°55' W 005°20'0 0.0
2015-Mar-29 01:31N 35°55' W 005°20'1 1.1
2015-Mar-29 00:33N 35°54' W 005°19'0 0.0
2015-Mar-28 23:31N 35°54' W 005°19'0 0.0
2015-Mar-28 22:31N 35°54' W 005°19'0 0.0
2015-Mar-28 21:34N 35°54' W 005°19'1 1.2
2015-Mar-28 20:34N 35°55' W 005°18'2 1.8
2015-Mar-28 19:34N 35°57' W 005°18'0 0.2
2015-Mar-28 18:34N 35°57' W 005°18'3 3.1
2015-Mar-28 17:34N 35°60' W 005°20'1010.1
2015-Mar-28 16:34N 36°09' W 005°25'1 0.0
2015-Mar-27 20:31N 36°09' W 005°24'7 7.3
2015-Mar-27 19:33N 36°05' W 005°17'  

Dump ship's entire track history